Time;durP1;ratioP1;P1;durP2;ratioP2;P2;SDS_P1;SDS_P2;PMS_P1;PMS_P2;Temp;Humidity;BMP_temperature;BMP_pressure;BME280_temperature;BME280_humidity;BME280_pressure;Samples;Min_cycle;Max_cycle;Signal;HPM_P1;HPM_P2
2023/04/01 00:01:38;;;;;;;3.40;1.40;;;;;;;9.13;100.00;99038.81;5085408;28;20458;-66
2023/04/01 00:04:04;;;;;;;4.05;1.70;;;;;;;9.07;100.00;99040.72;5085893;28;20024;-69
2023/04/01 00:06:30;;;;;;;3.08;1.50;;;;;;;9.15;100.00;99052.25;5086464;28;20059;-67
2023/04/01 00:08:55;;;;;;;2.90;1.60;;;;;;;9.14;100.00;99036.91;5085456;28;20070;-63
2023/04/01 00:11:21;;;;;;;3.15;1.52;;;;;;;9.14;100.00;99045.94;5084876;28;20119;-67
2023/04/01 00:13:47;;;;;;;3.53;1.60;;;;;;;9.18;100.00;99049.00;5086862;28;20032;-68
2023/04/01 00:16:13;;;;;;;4.00;1.60;;;;;;;9.10;100.00;99055.78;5086266;28;20413;-67
2023/04/01 00:18:38;;;;;;;2.92;1.42;;;;;;;9.13;100.00;99049.78;5083612;28;20020;-67
2023/04/01 00:21:04;;;;;;;2.47;1.70;;;;;;;9.09;100.00;99045.91;5085711;28;20078;-67
2023/04/01 00:23:30;;;;;;;3.15;1.60;;;;;;;9.16;100.00;99048.41;5084180;28;20028;-67
2023/04/01 00:25:55;;;;;;;2.17;1.42;;;;;;;9.17;100.00;99056.34;5085615;28;20024;-66
2023/04/01 00:28:20;;;;;;;2.63;1.85;;;;;;;9.08;100.00;99055.22;5087179;28;20052;-63
2023/04/01 00:30:47;;;;;;;3.15;1.80;;;;;;;9.15;100.00;99052.25;5076743;28;20036;-67
2023/04/01 00:33:12;;;;;;;2.92;2.13;;;;;;;9.09;100.00;99054.97;5088192;28;20036;-67
2023/04/01 00:35:38;;;;;;;4.65;2.40;;;;;;;9.10;100.00;99055.78;5089019;28;20077;-68
2023/04/01 00:38:05;;;;;;;4.00;2.53;;;;;;;9.07;100.00;99057.16;5089085;28;20031;-68
2023/04/01 00:40:36;;;;;;;4.82;2.75;;;;;;;9.11;100.00;99068.38;5089469;28;20036;-68
2023/04/01 00:43:03;;;;;;;4.65;3.00;;;;;;;9.09;100.00;99062.34;5088692;28;20028;-64
2023/04/01 00:45:31;;;;;;;4.28;3.20;;;;;;;9.09;100.00;99062.34;5090081;28;20071;-67
2023/04/01 00:48:01;;;;;;;4.18;3.30;;;;;;;9.13;100.00;99060.75;5088105;28;20047;-68
2023/04/01 00:50:28;;;;;;;4.25;3.60;;;;;;;9.14;100.00;99062.38;5090264;28;20024;-64
2023/04/01 00:52:53;;;;;;;4.03;3.60;;;;;;;9.09;100.00;99073.31;5088061;28;20052;-67
2023/04/01 00:55:21;;;;;;;4.60;3.40;;;;;;;9.16;100.00;99076.63;5088199;28;20083;-66
2023/04/01 00:57:49;;;;;;;5.07;3.85;;;;;;;9.14;100.00;99076.06;5087773;28;20063;-66
2023/04/01 01:00:17;;;;;;;4.63;3.80;;;;;;;9.12;100.00;99080.16;5089726;28;20055;-66
2023/04/01 01:02:44;;;;;;;4.88;4.05;;;;;;;9.12;100.00;99077.41;5088261;28;20024;-68
2023/04/01 01:05:15;;;;;;;4.93;4.10;;;;;;;9.12;100.00;99072.75;5088860;28;20024;-66
2023/04/01 01:08:12;;;;;;;4.88;4.32;;;;;;;9.30;100.00;99068.75;5086229;28;20039;-67
2023/04/01 01:10:38;;;;;;;4.50;4.10;;;;;;;9.14;100.00;99078.00;5088415;28;20048;-67
2023/04/01 01:13:25;;;;;;;4.75;4.28;;;;;;;9.12;100.00;99080.97;5088029;28;20082;-68
2023/04/01 01:16:00;;;;;;;5.93;4.80;;;;;;;9.16;100.00;99081.28;5088684;28;20625;-68
2023/04/01 01:18:37;;;;;;;5.47;4.32;;;;;;;9.12;100.00;99086.44;5085968;28;20031;-68
2023/04/01 01:21:33;;;;;;;4.87;4.40;;;;;;;9.13;100.00;99084.56;5087048;28;20466;-67
2023/04/01 01:24:25;;;;;;;5.30;4.53;;;;;;;9.15;100.00;99091.41;5079622;28;20035;-68
2023/04/01 01:27:00;;;;;;;5.50;5.00;;;;;;;9.13;100.00;99090.03;5088442;28;20031;-69
2023/04/01 01:29:31;;;;;;;5.55;5.05;;;;;;;9.09;100.00;99089.72;5089332;28;20069;-67
2023/04/01 01:32:08;;;;;;;5.70;5.20;;;;;;;9.08;100.00;99090.84;5089427;28;20202;-68
2023/04/01 01:34:50;;;;;;;5.75;5.20;;;;;;;9.09;100.00;99092.47;5087520;28;20024;-67
2023/04/01 01:37:18;;;;;;;5.43;4.93;;;;;;;9.10;100.00;99096.84;5088086;28;20024;-68
2023/04/01 01:39:56;;;;;;;5.38;4.88;;;;;;;9.09;100.00;99097.94;5086962;28;20035;-67
2023/04/01 01:42:25;;;;;;;5.72;5.22;;;;;;;9.10;100.00;99096.84;5088083;28;20832;-67
2023/04/01 01:44:53;;;;;;;5.30;4.90;;;;;;;9.07;100.00;99100.97;5088898;28;20467;-69
2023/04/01 01:47:20;;;;;;;5.10;4.60;;;;;;;9.14;100.00;99099.91;5087563;28;20035;-63
2023/04/01 01:49:46;;;;;;;5.13;4.63;;;;;;;9.08;100.00;99107.25;5089266;28;20027;-68
2023/04/01 01:52:13;;;;;;;4.60;4.20;;;;;;;9.04;100.00;99100.66;5085945;28;20504;-68
2023/04/01 01:54:52;;;;;;;4.03;3.63;;;;;;;9.06;100.00;99109.41;5088721;28;20039;-68
2023/04/01 01:57:33;;;;;;;3.80;3.38;;;;;;;9.05;100.00;99114.06;5088623;28;20383;-67
2023/04/01 02:00:13;;;;;;;3.45;3.08;;;;;;;9.09;100.00;99117.94;5089622;28;20417;-68
2023/04/01 02:02:47;;;;;;;3.47;3.17;;;;;;;9.06;100.00;99114.91;5086510;28;20035;-67
2023/04/01 02:05:19;;;;;;;4.78;4.28;;;;;;;9.03;100.00;99116.25;5086766;28;20036;-68
2023/04/01 02:08:08;;;;;;;4.88;4.40;;;;;;;9.05;100.00;99121.47;5086242;28;20056;-63
2023/04/01 02:10:39;;;;;;;3.50;3.20;;;;;;;9.00;100.00;99116.78;5087463;28;20425;-68
2023/04/01 02:13:13;;;;;;;3.78;3.38;;;;;;;8.99;100.00;99126.09;5087464;28;20063;-64
2023/04/01 02:15:42;;;;;;;3.42;3.13;;;;;;;8.98;100.00;99129.91;5069696;28;20107;-68
2023/04/01 02:18:08;;;;;;;4.55;4.15;;;;;;;9.02;100.00;99130.19;5086695;28;20028;-67
2023/04/01 02:20:36;;;;;;;5.43;4.93;;;;;;;8.98;100.00;99135.41;5086788;28;20032;-67
2023/04/01 02:23:03;;;;;;;5.45;4.95;;;;;;;8.98;100.00;99129.91;5086774;28;20020;-64
2023/04/01 02:25:33;;;;;;;4.53;4.13;;;;;;;8.96;100.00;99132.06;5087575;28;20032;-67
2023/04/01 02:28:00;;;;;;;4.10;3.70;;;;;;;8.92;100.00;99132.84;5088674;28;20032;-63
2023/04/01 02:30:27;;;;;;;3.53;3.22;;;;;;;8.95;100.00;99138.66;5087831;28;20040;-67
2023/04/01 02:32:54;;;;;;;3.40;3.10;;;;;;;8.93;100.00;99131.78;5086443;28;20090;-68
2023/04/01 02:35:20;;;;;;;3.83;3.00;;;;;;;8.83;100.00;99130.63;5086730;28;20314;-68
2023/04/01 02:37:50;;;;;;;4.18;2.72;;;;;;;8.83;100.00;99138.00;5086298;22;20148;-68
2023/04/01 02:40:16;;;;;;;3.78;2.55;;;;;;;8.80;100.00;99136.59;5004653;28;20064;-67
2023/04/01 02:42:42;;;;;;;3.03;2.28;;;;;;;8.86;100.00;99144.84;5006441;28;20041;-67
2023/04/01 02:45:08;;;;;;;2.85;2.40;;;;;;;8.82;100.00;99142.66;5007479;28;20025;-68
2023/04/01 02:47:33;;;;;;;2.55;2.35;;;;;;;8.79;100.00;99129.50;5007172;28;20117;-66
2023/04/01 02:49:59;;;;;;;2.85;2.60;;;;;;;8.81;100.00;99141.00;5008227;28;20109;-68
2023/04/01 02:52:25;;;;;;;2.95;2.63;;;;;;;8.81;100.00;99151.13;5005403;28;20049;-68
2023/04/01 02:54:50;;;;;;;3.47;2.70;;;;;;;8.78;100.00;99157.94;5005386;28;20026;-68
2023/04/01 02:57:16;;;;;;;3.22;2.85;;;;;;;8.75;100.00;99155.72;5007084;28;20036;-67
2023/04/01 02:59:41;;;;;;;4.18;2.97;;;;;;;8.68;100.00;99152.38;4988265;28;20465;-67
2023/04/01 03:02:06;;;;;;;3.10;2.78;;;;;;;8.69;100.00;99153.22;5007330;28;20018;-63
2023/04/01 03:04:32;;;;;;;3.95;3.15;;;;;;;8.71;100.00;99151.84;5006926;28;20030;-67
2023/04/01 03:06:57;;;;;;;4.35;3.42;;;;;;;8.64;100.00;99158.63;5006909;28;20120;-68
2023/04/01 03:09:22;;;;;;;5.18;4.30;;;;;;;8.68;100.00;99152.38;5005641;28;20044;-66
2023/04/01 03:11:48;;;;;;;5.03;4.35;;;;;;;8.71;100.00;99160.06;5005036;28;20080;-69
2023/04/01 03:14:13;;;;;;;4.95;4.30;;;;;;;8.69;100.00;99166.91;5007578;28;20014;-68
2023/04/01 03:16:38;;;;;;;5.05;4.38;;;;;;;8.72;100.00;99163.66;5006773;28;20396;-66
2023/04/01 03:19:04;;;;;;;5.53;4.60;;;;;;;8.71;100.00;99165.53;5006617;28;20065;-68
2023/04/01 03:21:29;;;;;;;5.72;4.95;;;;;;;8.69;100.00;99164.97;5005909;28;20026;-65
2023/04/01 03:23:54;;;;;;;5.72;5.22;;;;;;;8.74;100.00;99167.75;5006248;28;20072;-64
2023/04/01 03:26:21;;;;;;;6.05;5.38;;;;;;;8.69;100.00;99167.72;5003875;28;20763;-67
2023/04/01 03:28:46;;;;;;;6.00;5.22;;;;;;;8.68;100.00;99173.47;4988151;28;20033;-67
2023/04/01 03:31:12;;;;;;;5.72;5.10;;;;;;;8.78;100.00;99179.03;5006695;28;20025;-67
2023/04/01 03:33:37;;;;;;;6.10;4.95;;;;;;;8.75;100.00;99174.88;5007049;28;20029;-67
2023/04/01 03:36:06;;;;;;;5.80;5.25;;;;;;;8.68;100.00;99168.81;5006106;28;20544;-68
2023/04/01 03:38:31;;;;;;;5.75;5.10;;;;;;;8.76;100.00;99179.25;5005378;28;20046;-63
2023/04/01 03:40:57;;;;;;;5.38;4.63;;;;;;;8.67;100.00;99183.59;5006328;28;20030;-67
2023/04/01 03:43:22;;;;;;;4.60;4.20;;;;;;;8.74;100.00;99177.88;5006181;28;20018;-68
2023/04/01 03:45:49;;;;;;;4.68;4.10;;;;;;;8.70;100.00;99176.75;5005510;28;20453;-68
2023/04/01 03:48:15;;;;;;;4.10;3.58;;;;;;;8.70;100.00;99184.97;5006110;28;20041;-67
2023/04/01 03:50:40;;;;;;;3.20;2.90;;;;;;;8.68;100.00;99182.50;5006429;28;20218;-63
2023/04/01 03:53:06;;;;;;;3.38;2.78;;;;;;;8.62;100.00;99191.75;5005568;28;20026;-66
2023/04/01 03:55:31;;;;;;;3.35;2.90;;;;;;;8.65;100.00;99193.94;5003714;28;20045;-65
2023/04/01 03:57:57;;;;;;;3.33;3.03;;;;;;;8.66;100.00;99186.56;5006490;28;20431;-63
2023/04/01 04:00:22;;;;;;;3.42;3.10;;;;;;;8.67;100.00;99190.94;5005106;28;20500;-68
2023/04/01 04:02:47;;;;;;;3.80;3.25;;;;;;;8.63;100.00;99190.66;5006713;28;20472;-66
2023/04/01 04:05:13;;;;;;;2.92;2.63;;;;;;;8.67;100.00;99194.53;5010320;28;20109;-68
2023/04/01 04:07:39;;;;;;;3.15;2.60;;;;;;;8.68;100.00;99196.19;5008718;28;20080;-66
2023/04/01 04:10:05;;;;;;;2.45;2.25;;;;;;;8.69;100.00;99202.47;5009536;28;20037;-68
2023/04/01 04:12:30;;;;;;;2.30;2.10;;;;;;;8.61;100.00;99208.41;5011005;28;20022;-65
2023/04/01 04:14:56;;;;;;;2.30;2.00;;;;;;;8.67;100.00;99204.63;5017444;28;20018;-67
2023/04/01 04:17:21;;;;;;;2.80;2.38;;;;;;;8.49;100.00;99203.91;5008569;28;20030;-68
2023/04/01 04:19:46;;;;;;;2.58;2.25;;;;;;;8.46;100.00;99209.06;5009683;28;20036;-66
2023/04/01 04:22:11;;;;;;;2.70;2.50;;;;;;;8.44;100.00;99211.25;5004996;28;20029;-69
2023/04/01 04:24:37;;;;;;;2.40;2.20;;;;;;;8.41;100.00;99222.69;5007746;28;20026;-66
2023/04/01 04:27:03;;;;;;;3.28;2.72;;;;;;;8.39;100.00;99222.13;5010245;28;20026;-68
2023/04/01 04:29:29;;;;;;;2.92;2.38;;;;;;;8.43;100.00;99221.38;5010123;28;20081;-69
2023/04/01 04:31:54;;;;;;;3.03;2.33;;;;;;;8.41;100.00;99220.78;5009578;28;20025;-69
2023/04/01 04:34:21;;;;;;;3.38;3.00;;;;;;;8.39;100.00;99219.38;5010105;28;20025;-69
2023/04/01 04:36:46;;;;;;;3.03;2.72;;;;;;;8.38;100.00;99232.25;5008125;28;20506;-68
2023/04/01 04:39:12;;;;;;;3.20;2.78;;;;;;;8.45;100.00;99230.13;5008830;28;20042;-68
2023/04/01 04:41:37;;;;;;;3.95;3.00;;;;;;;8.43;100.00;99234.22;5009526;28;20030;-68
2023/04/01 04:44:03;;;;;;;3.30;2.80;;;;;;;8.36;100.00;99230.81;5009354;28;20053;-67
2023/04/01 04:46:28;;;;;;;3.22;2.75;;;;;;;8.35;100.00;99229.16;5009632;28;20034;-65
2023/04/01 04:48:53;;;;;;;3.13;2.67;;;;;;;8.42;100.00;99235.31;5009176;28;20548;-69
2023/04/01 04:51:19;;;;;;;3.03;2.63;;;;;;;8.42;100.00;99238.03;5007347;28;20022;-64
2023/04/01 04:53:45;;;;;;;2.70;2.50;;;;;;;8.40;100.00;99237.44;5008794;28;20057;-67
2023/04/01 04:56:11;;;;;;;3.55;2.80;;;;;;;8.33;100.00;99240.38;5008912;28;20036;-68
2023/04/01 04:58:38;;;;;;;2.85;2.55;;;;;;;8.35;100.00;99246.38;5007447;28;20034;-65
2023/04/01 05:01:11;;;;;;;3.53;2.80;;;;;;;8.43;100.00;99250.63;5009178;28;20040;-67
2023/04/01 05:03:37;;;;;;;3.35;3.05;;;;;;;8.36;100.00;99256.28;5009512;28;20026;-68
2023/04/01 05:06:03;;;;;;;3.33;2.75;;;;;;;8.50;100.00;99254.81;5007758;28;20030;-69
2023/04/01 05:08:28;;;;;;;3.90;3.50;;;;;;;8.37;100.00;99265.34;5007915;28;20112;-63
2023/04/01 05:10:54;;;;;;;3.95;3.55;;;;;;;8.49;100.00;99275.06;5008343;28;20049;-68
2023/04/01 05:13:19;;;;;;;3.72;3.42;;;;;;;8.38;100.00;99265.06;5007881;28;20038;-67
2023/04/01 05:15:45;;;;;;;4.45;3.90;;;;;;;8.38;100.00;99270.53;5006497;28;20449;-67
2023/04/01 05:18:10;;;;;;;4.22;3.63;;;;;;;8.36;100.00;99274.56;5007482;28;20477;-66
2023/04/01 05:20:35;;;;;;;3.88;3.58;;;;;;;8.47;100.00;99282.69;5007300;28;20065;-67
2023/04/01 05:23:01;;;;;;;4.43;3.92;;;;;;;8.46;100.00;99282.94;5005295;28;20120;-69
2023/04/01 05:25:26;;;;;;;4.50;4.03;;;;;;;8.42;100.00;99285.38;5007112;28;20018;-67
2023/04/01 05:27:51;;;;;;;4.35;3.95;;;;;;;8.41;100.00;99288.34;5008128;28;20124;-64
2023/04/01 05:30:17;;;;;;;4.40;4.00;;;;;;;8.37;100.00;99288.03;5008637;28;20057;-68
2023/04/01 05:32:43;;;;;;;4.55;3.92;;;;;;;8.33;100.00;99295.91;5007327;28;20494;-68
2023/04/01 05:35:09;;;;;;;5.70;4.80;;;;;;;8.35;100.00;99294.81;5008557;28;20048;-66
2023/04/01 05:37:35;;;;;;;4.90;4.07;;;;;;;8.37;100.00;99300.91;5005138;28;20042;-69
2023/04/01 05:40:01;;;;;;;5.50;4.47;;;;;;;8.39;100.00;99296.81;5009405;28;20049;-63
2023/04/01 05:42:26;;;;;;;4.60;4.10;;;;;;;8.45;100.00;99305.91;5008740;28;20049;-68
2023/04/01 05:44:52;;;;;;;5.97;5.38;;;;;;;8.39;100.00;99307.75;4989974;28;20465;-65
2023/04/01 05:47:17;;;;;;;5.60;5.10;;;;;;;8.42;100.00;99314.66;5006366;28;20112;-62
2023/04/01 05:49:42;;;;;;;6.10;5.50;;;;;;;8.44;100.00;99323.41;5008612;28;20041;-67
2023/04/01 05:52:08;;;;;;;6.78;6.13;;;;;;;8.50;100.00;99320.47;5004833;28;20022;-66
2023/04/01 05:54:33;;;;;;;7.70;7.00;;;;;;;8.49;100.00;99315.28;5007139;28;20022;-68
2023/04/01 05:56:58;;;;;;;7.22;6.53;;;;;;;8.62;100.00;99325.84;5008442;28;20030;-63
2023/04/01 05:59:24;;;;;;;8.50;7.70;;;;;;;8.56;100.00;99333.13;5008299;28;20544;-67
2023/04/01 06:01:49;;;;;;;8.55;7.75;;;;;;;8.55;100.00;99327.94;5006937;28;20030;-68
2023/04/01 06:04:17;;;;;;;9.23;8.43;;;;;;;8.55;100.00;99336.97;5004899;28;20531;-66
2023/04/01 06:06:42;;;;;;;9.15;8.25;;;;;;;8.59;100.00;99340.03;5004926;28;20393;-67
2023/04/01 06:09:19;;;;;;;10.23;9.23;;;;;;;8.60;100.00;99349.88;5005028;28;20041;-65
2023/04/01 06:12:22;;;;;;;10.38;9.38;;;;;;;8.63;100.00;99354.84;5006015;28;20697;-64
2023/04/01 06:15:06;;;;;;;10.73;9.70;;;;;;;8.64;100.00;99361.97;5008187;28;20092;-67
2023/04/01 06:18:02;;;;;;;10.43;9.43;;;;;;;8.65;100.00;99369.09;5006275;28;20096;-63
2023/04/01 06:20:46;;;;;;;10.25;9.35;;;;;;;8.68;100.00;99365.88;5007903;28;20029;-65
2023/04/01 06:23:55;;;;;;;10.25;9.35;;;;;;;8.71;100.00;99378.19;5008394;28;20041;-62
2023/04/01 06:26:36;;;;;;;10.20;9.20;;;;;;;8.69;100.00;99383.13;5008304;28;20421;-64
2023/04/01 06:29:25;;;;;;;10.45;9.45;;;;;;;8.71;100.00;99384.50;5007966;28;20022;-63
2023/04/01 06:32:06;;;;;;;10.68;9.68;;;;;;;8.71;100.00;99380.94;5005760;28;20026;-67
2023/04/01 06:34:57;;;;;;;10.82;9.77;;;;;;;8.71;100.00;99387.25;5013581;28;20494;-63
2023/04/01 06:37:40;;;;;;;10.48;9.48;;;;;;;8.73;100.00;99385.09;5006951;28;20056;-66
2023/04/01 06:40:08;;;;;;;9.90;9.00;;;;;;;8.75;100.00;99393.88;5008040;28;20100;-65
2023/04/01 06:42:42;;;;;;;11.45;10.43;;;;;;;8.78;100.00;99393.38;5008378;28;20498;-62
2023/04/01 06:45:36;;;;;;;10.38;9.48;;;;;;;8.81;100.00;99398.31;5008213;28;20033;-64
2023/04/01 06:48:34;;;;;;;10.10;9.10;;;;;;;8.83;100.00;99396.16;5006974;28;20014;-63
2023/04/01 06:51:04;;;;;;;9.70;8.80;;;;;;;8.88;100.00;99405.53;5006559;28;20129;-63
2023/04/01 06:53:35;;;;;;;9.40;8.60;;;;;;;8.87;100.00;99403.84;5007781;28;20375;-67
2023/04/01 06:56:08;;;;;;;9.40;8.40;;;;;;;8.87;100.00;99404.72;5008337;28;20035;-66
2023/04/01 06:58:39;;;;;;;9.48;8.57;;;;;;;8.87;100.00;99412.06;5007765;28;20083;-67
2023/04/01 07:01:10;;;;;;;9.45;8.43;;;;;;;8.88;100.00;99409.09;5007860;28;20484;-65
2023/04/01 07:03:47;;;;;;;10.32;8.80;;;;;;;8.90;100.00;99420.59;5005231;28;20029;-63
2023/04/01 07:06:25;;;;;;;10.00;9.00;;;;;;;8.91;100.00;99424.16;5004988;28;20060;-64
2023/04/01 07:08:52;;;;;;;9.73;8.80;;;;;;;8.93;100.00;99435.72;5005155;28;20033;-64
2023/04/01 07:11:28;;;;;;;9.05;8.15;;;;;;;8.94;100.00;99429.16;5004594;28;20056;-65
2023/04/01 07:14:06;;;;;;;10.60;8.82;;;;;;;8.94;100.00;99434.63;5006230;28;20048;-65
2023/04/01 07:16:35;;;;;;;9.32;8.32;;;;;;;8.93;100.00;99436.53;5007465;28;20087;-64
2023/04/01 07:19:36;;;;;;;10.90;8.55;;;;;;;8.97;100.00;99440.44;5013909;28;20134;-64
2023/04/01 07:22:06;;;;;;;9.27;7.78;;;;;;;9.02;100.00;99443.22;5010694;28;20195;-64
2023/04/01 07:24:39;;;;;;;9.02;7.60;;;;;;;9.09;100.00;99445.78;5019703;28;20033;-64
2023/04/01 07:27:09;;;;;;;8.70;7.75;;;;;;;9.13;100.00;99455.13;5019503;28;20032;-65
2023/04/01 07:29:35;;;;;;;7.75;6.70;;;;;;;9.18;100.00;99463.41;5022725;28;20644;-64
2023/04/01 07:32:19;;;;;;;7.57;6.78;;;;;;;9.18;100.00;99463.41;5008558;28;20033;-64
2023/04/01 07:34:50;;;;;;;9.07;7.00;;;;;;;9.23;100.00;99466.22;4998342;28;20083;-65
2023/04/01 07:37:24;;;;;;;8.57;6.88;;;;;;;9.26;100.00;99468.44;5013655;28;20134;-65
2023/04/01 07:39:58;;;;;;;8.00;6.35;;;;;;;9.33;100.00;99471.81;5024671;28;20025;-65
2023/04/01 07:42:54;;;;;;;7.75;6.55;;;;;;;9.51;100.00;99484.34;5024911;28;20503;-63
2023/04/01 07:45:35;;;;;;;7.05;6.03;;;;;;;9.57;100.00;99480.56;5014385;28;20029;-64
2023/04/01 07:48:50;;;;;;;7.22;5.90;;;;;;;9.57;100.00;99488.78;5023063;28;20043;-64
2023/04/01 07:51:28;;;;;;;6.50;5.38;;;;;;;9.61;100.00;99486.38;4970930;28;20091;-65
2023/04/01 07:54:26;;;;;;;7.53;5.93;;;;;;;9.66;100.00;99494.63;5030526;28;20033;-65
2023/04/01 07:57:09;;;;;;;7.68;5.97;;;;;;;9.65;100.00;99489.44;5015372;28;20038;-65
2023/04/01 07:59:41;;;;;;;8.35;6.50;;;;;;;9.59;100.00;99497.59;5030807;28;20037;-65
2023/04/01 08:02:31;;;;;;;7.20;6.25;;;;;;;9.57;100.00;99504.41;5030813;28;20022;-65
2023/04/01 08:05:19;;;;;;;8.50;6.75;;;;;;;9.54;100.00;99505.75;5028849;28;20033;-64
2023/04/01 08:08:09;;;;;;;7.85;7.05;;;;;;;9.50;100.00;99515.56;5029613;28;20030;-65
2023/04/01 08:10:48;;;;;;;8.52;7.05;;;;;;;9.45;100.00;99518.25;5030513;28;20033;-65
2023/04/01 08:13:42;;;;;;;8.95;7.65;;;;;;;9.41;100.00;99517.09;5030656;28;20099;-64
2023/04/01 08:16:36;;;;;;;9.07;7.75;;;;;;;9.38;100.00;99520.38;5029717;28;20048;-66
2023/04/01 08:19:20;;;;;;;9.90;8.90;;;;;;;9.39;100.00;99535.72;4990844;28;20080;-65
2023/04/01 08:21:50;;;;;;;9.45;8.45;;;;;;;9.49;100.00;99530.38;4988889;28;20126;-66
2023/04/01 08:24:32;;;;;;;9.10;8.00;;;;;;;9.46;100.00;99538.25;4990686;28;20026;-66
2023/04/01 08:27:05;;;;;;;9.07;8.10;;;;;;;9.46;100.00;99532.78;4991556;28;20034;-64
2023/04/01 08:29:40;;;;;;;10.38;8.45;;;;;;;9.48;100.00;99538.81;4994788;28;20026;-65
2023/04/01 08:32:08;;;;;;;8.82;7.93;;;;;;;9.49;100.00;99541.31;5010652;28;20465;-64
2023/04/01 08:34:37;;;;;;;8.93;8.02;;;;;;;9.54;100.00;99548.78;5010495;28;20022;-66
2023/04/01 08:37:21;;;;;;;9.38;8.32;;;;;;;9.56;100.00;99543.88;5009589;28;20034;-65
2023/04/01 08:39:52;;;;;;;9.23;8.10;;;;;;;9.56;100.00;99544.69;5010195;28;20475;-65
2023/04/01 08:43:15;;;;;;;8.77;7.85;;;;;;;9.61;100.00;99560.38;5010079;28;20053;-65
2023/04/01 08:45:59;;;;;;;9.65;8.30;;;;;;;9.66;100.00;99557.69;4930038;29;20027;-65
2023/04/01 08:48:35;;;;;;;9.20;8.30;;;;;;;9.61;100.00;99563.13;4930065;29;20102;-65
2023/04/01 08:51:16;;;;;;;8.95;8.05;;;;;;;9.65;100.00;99558.78;4982700;28;20034;-66
2023/04/01 08:53:53;;;;;;;8.75;7.75;;;;;;;9.62;100.00;99570.25;5009236;28;20076;-64
2023/04/01 08:56:56;;;;;;;8.60;7.57;;;;;;;9.61;100.00;99576.81;5010348;28;20029;-65
2023/04/01 08:59:38;;;;;;;9.48;7.63;;;;;;;9.61;100.00;99576.81;4970077;28;20133;-65
2023/04/01 09:02:09;;;;;;;9.43;7.93;;;;;;;9.60;100.00;99580.66;5009747;28;20021;-64
2023/04/01 09:04:57;;;;;;;8.75;7.82;;;;;;;9.60;100.00;99591.63;5009786;28;20115;-65
2023/04/01 09:07:45;;;;;;;9.02;7.68;;;;;;;9.63;100.00;99596.59;5008620;28;20022;-65
2023/04/01 09:10:29;;;;;;;8.45;7.65;;;;;;;9.68;100.00;99601.28;5009973;28;20457;-64
2023/04/01 09:13:31;;;;;;;9.15;8.18;;;;;;;9.65;100.00;99601.81;5009382;28;20092;-64
2023/04/01 09:16:35;;;;;;;8.85;7.95;;;;;;;9.68;100.00;99609.50;5010176;28;20440;-65
2023/04/01 09:19:15;;;;;;;8.48;7.20;;;;;;;9.74;100.00;99617.56;4990240;28;20041;-65
2023/04/01 09:22:37;;;;;;;8.77;7.88;;;;;;;9.72;100.00;99614.22;4989584;28;20117;-65
2023/04/01 09:25:30;;;;;;;8.77;7.00;;;;;;;9.72;100.00;99616.97;4929680;29;20118;-65
2023/04/01 09:28:19;;;;;;;8.70;7.53;;;;;;;9.71;100.00;99623.56;4929358;29;20032;-64
2023/04/01 09:31:07;;;;;;;8.65;7.72;;;;;;;9.75;100.00;99632.94;4984404;28;20065;-65
2023/04/01 09:33:38;;;;;;;;;;;;;;;9.80;100.00;99634.91;4989594;28;20573;-64
2023/04/01 09:36:26;;;;;;;7.40;6.60;;;;;;;9.78;100.00;99632.44;4989399;28;19936;-65
2023/04/01 09:39:00;;;;;;;7.65;6.85;;;;;;;9.73;100.00;99634.25;4988751;28;20050;-66
2023/04/01 09:41:30;;;;;;;7.85;6.63;;;;;;;9.72;100.00;99638.91;4989702;28;20458;-64
2023/04/01 09:44:02;;;;;;;8.55;6.97;;;;;;;9.69;100.00;99636.69;4989604;28;20034;-65
2023/04/01 09:47:05;;;;;;;8.30;6.93;;;;;;;9.71;100.00;99650.13;4989964;28;20070;-65
2023/04/01 09:50:01;;;;;;;9.32;7.50;;;;;;;9.71;100.00;99648.22;4994689;28;20528;-65
2023/04/01 09:52:45;;;;;;;8.32;7.05;;;;;;;9.72;100.00;99651.78;5014115;28;20052;-65
2023/04/01 09:55:29;;;;;;;8.23;6.75;;;;;;;9.69;100.00;99649.59;5028604;28;20383;-66
2023/04/01 09:58:03;;;;;;;7.82;6.28;;;;;;;9.73;100.00;99657.03;5028333;28;20029;-66
2023/04/01 10:00:43;;;;;;;6.80;5.53;;;;;;;9.76;100.00;99651.03;5028983;28;20030;-66
2023/04/01 10:03:36;;;;;;;6.35;5.43;;;;;;;9.80;100.00;99656.84;5028453;28;20034;-65
2023/04/01 10:06:20;;;;;;;6.72;5.65;;;;;;;9.91;100.00;99660.53;5027718;28;20041;-65
2023/04/01 10:09:10;;;;;;;6.18;5.57;;;;;;;10.04;100.00;99660.16;5027838;28;20095;-66
2023/04/01 10:11:55;;;;;;;6.93;5.20;;;;;;;10.13;100.00;99658.59;5027723;28;20055;-65
2023/04/01 10:14:44;;;;;;;5.70;4.90;;;;;;;10.31;100.00;99666.53;5027826;28;20137;-64
2023/04/01 10:17:47;;;;;;;5.35;4.28;;;;;;;10.46;100.00;99670.53;5022135;28;20037;-65
2023/04/01 10:20:33;;;;;;;4.88;4.38;;;;;;;10.52;100.00;99666.75;5007919;28;20031;-65
2023/04/01 10:23:12;;;;;;;4.60;4.20;;;;;;;10.56;100.00;99673.38;4967697;28;20051;-65
2023/04/01 10:26:01;;;;;;;4.57;4.13;;;;;;;10.61;100.00;99673.44;5008309;28;20022;-64
2023/04/01 10:28:35;;;;;;;4.35;3.95;;;;;;;10.65;100.00;99680.91;5008398;28;20034;-65
2023/04/01 10:31:35;;;;;;;4.43;3.78;;;;;;;10.78;100.00;99685.13;5009068;28;20030;-65
2023/04/01 10:34:39;;;;;;;3.63;3.33;;;;;;;10.93;100.00;99689.09;5008769;28;20022;-65
2023/04/01 10:37:41;;;;;;;4.10;3.70;;;;;;;10.97;100.00;99682.00;5004424;28;20148;-64
2023/04/01 10:40:25;;;;;;;4.53;3.53;;;;;;;10.90;100.00;99688.53;5005311;28;20041;-66
2023/04/01 10:43:20;;;;;;;4.03;3.63;;;;;;;10.76;100.00;99689.22;5005662;28;20491;-64
2023/04/01 10:46:03;;;;;;;4.32;3.92;;;;;;;10.83;100.00;99698.06;5008425;28;20036;-65
2023/04/01 10:49:10;;;;;;;4.32;3.92;;;;;;;10.79;100.00;99697.75;5008636;28;20041;-66
2023/04/01 10:51:43;;;;;;;4.65;4.20;;;;;;;10.75;100.00;99695.81;5006857;28;20084;-65
2023/04/01 10:54:41;;;;;;;4.68;4.28;;;;;;;10.73;100.00;99701.53;5007969;28;20420;-63
2023/04/01 10:57:45;;;;;;;4.32;3.92;;;;;;;10.65;100.00;99704.78;5006689;28;20029;-65
2023/04/01 11:00:34;;;;;;;4.30;3.90;;;;;;;10.68;100.00;99707.00;4947171;28;20035;-65
2023/04/01 11:03:11;;;;;;;5.03;4.07;;;;;;;10.78;100.00;99704.34;4946988;28;20470;-66
2023/04/01 11:06:33;;;;;;;4.78;4.32;;;;;;;10.81;100.00;99709.31;4980693;28;20725;-65
2023/04/01 11:09:27;;;;;;;4.90;4.40;;;;;;;10.73;100.00;99709.78;4946655;28;20981;-66
2023/04/01 11:12:36;;;;;;;6.10;5.50;;;;;;;10.67;100.00;99710.81;4946673;28;20119;-65
2023/04/01 11:15:17;;;;;;;6.05;5.45;;;;;;;10.49;100.00;99716.66;4982227;28;20042;-66
2023/04/01 11:18:09;;;;;;;6.13;5.53;;;;;;;10.45;100.00;99727.34;5007115;28;20034;-65
2023/04/01 11:21:00;;;;;;;6.28;5.68;;;;;;;10.45;100.00;99726.53;5006812;28;20034;-66
2023/04/01 11:24:04;;;;;;;6.43;5.65;;;;;;;10.48;100.00;99731.47;5007332;28;20040;-65
2023/04/01 11:26:41;;;;;;;7.00;6.20;;;;;;;10.49;100.00;99735.88;5006184;28;20033;-65
2023/04/01 11:29:51;;;;;;;7.20;6.50;;;;;;;10.53;100.00;99745.25;4989038;28;20070;-65
2023/04/01 11:32:34;;;;;;;7.32;6.63;;;;;;;10.47;100.00;99736.16;4987772;28;20101;-65
2023/04/01 11:35:19;;;;;;;7.93;7.22;;;;;;;10.54;100.00;99742.28;4988251;28;20026;-65
2023/04/01 11:37:54;;;;;;;8.20;7.40;;;;;;;10.55;100.00;99743.13;4987003;28;20042;-65
2023/04/01 11:40:31;;;;;;;9.18;8.38;;;;;;;10.56;100.00;99747.50;4988226;28;20665;-65
2023/04/01 11:43:34;;;;;;;8.03;7.33;;;;;;;10.68;100.00;99742.69;4970339;28;20127;-65
2023/04/01 11:46:33;;;;;;;7.63;6.93;;;;;;;10.78;100.00;99747.47;4977775;28;20037;-65
2023/04/01 11:48:58;;;;;;;7.00;6.30;;;;;;;10.71;100.00;99747.66;5007727;28;20117;-65
2023/04/01 11:51:42;;;;;;;7.33;6.60;;;;;;;10.71;100.00;99761.41;5014931;28;20045;-64
2023/04/01 11:54:26;;;;;;;6.35;5.72;;;;;;;10.77;100.00;99770.53;5024208;28;20291;-65
2023/04/01 11:57:10;;;;;;;6.40;5.43;;;;;;;10.91;100.00;99760.78;5006209;28;20392;-64
2023/04/01 12:00:18;;;;;;;5.53;5.03;;;;;;;10.97;100.00;99764.41;5005046;28;20510;-65
2023/04/01 12:03:14;;;;;;;5.38;4.88;;;;;;;11.02;100.00;99773.53;5005209;28;20559;-65
2023/04/01 12:06:06;;;;;;;6.10;5.25;;;;;;;11.05;100.00;99781.25;5003732;28;20080;-65
2023/04/01 12:09:12;;;;;;;4.68;4.03;;;;;;;11.06;100.00;99785.66;5004972;28;20026;-65
2023/04/01 12:11:40;;;;;;;4.55;3.90;;;;;;;10.89;100.00;99782.19;4994204;28;20096;-63
2023/04/01 12:14:33;;;;;;;5.43;4.35;;;;;;;10.87;100.00;99784.38;5005281;28;20116;-63